Time;durP1;ratioP1;P1;durP2;ratioP2;P2;SDS_P1;SDS_P2;PMS_P1;PMS_P2;Temp;Humidity;BMP_temperature;BMP_pressure;BME280_temperature;BME280_humidity;BME280_pressure;Samples;Min_cycle;Max_cycle;Signal;HPM_P1;HPM_P2
2023/01/18 00:01:04;;;;;;;;;;;-1.30;99.90;;;;;;5059171;28;19924;-72
2023/01/18 00:03:32;;;;;;;;;;;-1.30;99.90;;;;;;5060990;28;20355;-72
2023/01/18 00:06:00;;;;;;;;;;;-1.30;99.90;;;;;;5056337;28;20403;-72
2023/01/18 00:08:27;;;;;;;;;;;-1.30;99.90;;;;;;5055531;28;20031;-72
2023/01/18 00:10:54;;;;;;;;;;;-1.30;99.90;;;;;;5058242;28;19966;-73
2023/01/18 00:13:21;;;;;;;;;;;-1.20;99.90;;;;;;5057839;28;19925;-73
2023/01/18 00:15:47;;;;;;;;;;;-1.20;99.90;;;;;;5053838;28;19928;-72
2023/01/18 00:18:15;;;;;;;;;;;-1.20;99.90;;;;;;5074809;28;19924;-72
2023/01/18 00:20:42;;;;;;;;;;;-1.30;99.90;;;;;;5059735;28;19925;-72
2023/01/18 00:23:09;;;;;;;;;;;-1.30;99.90;;;;;;5050828;28;20376;-70
2023/01/18 00:25:36;;;;;;;;;;;-1.30;99.90;;;;;;5053402;28;20006;-71
2023/01/18 00:28:02;;;;;;;;;;;-1.30;99.90;;;;;;5063654;28;19931;-71
2023/01/18 00:30:29;;;;;;;;;;;-1.30;99.90;;;;;;5060006;28;19936;-71
2023/01/18 00:32:56;;;;;;;;;;;-1.30;99.90;;;;;;5058321;28;19925;-70
2023/01/18 00:35:25;;;;;;;;;;;-1.30;99.90;;;;;;5051881;28;19956;-70
2023/01/18 00:37:52;;;;;;;;;;;-1.30;99.90;;;;;;5055766;28;19931;-71
2023/01/18 00:40:19;;;;;;;;;;;-1.30;99.90;;;;;;5063252;28;19925;-71
2023/01/18 00:45:30;;;;;;;;;;;-1.30;99.90;;;;;;5055787;28;19940;-72
2023/01/18 00:47:57;;;;;;;;;;;-1.30;99.90;;;;;;5071412;28;20294;-72
2023/01/18 00:50:25;;;;;;;;;;;-1.40;99.90;;;;;;5063933;28;19928;-72
2023/01/18 00:52:55;;;;;;;;;;;-1.40;99.90;;;;;;5067488;28;20014;-71
2023/01/18 00:55:22;;;;;;;;;;;-1.40;99.90;;;;;;5059834;28;20449;-71
2023/01/18 00:57:49;;;;;;;;;;;-1.40;99.90;;;;;;5064483;28;19925;-72
2023/01/18 01:00:18;;;;;;;;;;;-1.50;99.90;;;;;;5053848;28;19947;-71
2023/01/18 01:02:45;;;;;;;;;;;-1.50;99.90;;;;;;5060173;28;20402;-71
2023/01/18 01:08:01;;;;;;;;;;;-1.50;99.90;;;;;;5053427;28;20011;-71
2023/01/18 01:10:28;;;;;;;;;;;-1.50;99.90;;;;;;5056137;28;20009;-72
2023/01/18 01:26:37;;;;;;;;;;;-1.70;99.90;;;;;;5067676;28;19930;-72
2023/01/18 01:29:03;;;;;;;;;;;-1.70;99.90;;;;;;5057589;28;20004;-72
2023/01/18 01:31:30;;;;;;;;;;;-1.70;99.90;;;;;;5068948;28;19925;-72
2023/01/18 01:33:57;;;;;;;;;;;-1.70;99.90;;;;;;5070645;28;19931;-72
2023/01/18 01:36:26;;;;;;;;;;;-1.70;99.90;;;;;;5060222;28;20023;-73
2023/01/18 01:38:54;;;;;;;;;;;-1.70;99.90;;;;;;5054295;28;19925;-71
2023/01/18 01:41:24;;;;;;;;;;;-1.70;99.90;;;;;;5061890;28;20264;-72
2023/01/18 01:43:51;;;;;;;;;;;-1.70;99.90;;;;;;5063586;28;19947;-72
2023/01/18 01:46:23;;;;;;;;;;;-1.70;99.90;;;;;;5065311;28;19931;-71
2023/01/18 01:48:50;;;;;;;;;;;-1.70;99.90;;;;;;5065983;28;19924;-71
2023/01/18 01:51:18;;;;;;;;;;;-1.70;99.90;;;;;;5066519;28;20015;-71
2023/01/18 01:53:45;;;;;;;;;;;-1.90;99.90;;;;;;5059117;28;19970;-72
2023/01/18 01:56:13;;;;;;;;;;;-1.70;99.90;;;;;;5060387;28;19925;-72
2023/01/18 01:58:41;;;;;;;;;;;-1.80;99.90;;;;;;5066063;28;19924;-71
2023/01/18 02:01:08;;;;;;;;;;;-1.80;99.90;;;;;;5067919;28;19931;-72
2023/01/18 02:03:35;;;;;;;;;;;-1.80;99.90;;;;;;5060501;28;19931;-72
2023/01/18 02:06:07;;;;;;;;;;;-1.80;99.90;;;;;;5059301;28;20383;-72
2023/01/18 02:08:34;;;;;;;;;;;-1.80;99.90;;;;;;5064203;28;19924;-72
2023/01/18 02:11:00;;;;;;;;;;;-1.80;99.90;;;;;;5061506;28;19938;-73
2023/01/18 02:13:29;;;;;;;;;;;-1.80;99.90;;;;;;5061885;28;20405;-72
2023/01/18 02:15:59;;;;;;;;;;;-1.80;99.90;;;;;;5056810;28;19928;-71
2023/01/18 02:18:28;;;;;;;;;;;-1.80;99.90;;;;;;5060623;28;20384;-72
2023/01/18 02:21:08;;;;;;;;;;;-1.80;99.90;;;;;;5065585;28;19929;-72
2023/01/18 02:23:52;;;;;;;;;;;-1.80;99.90;;;;;;5056447;28;19925;-72
2023/01/18 02:26:33;;;;;;;;;;;-1.80;99.90;;;;;;5064291;28;19929;-73
2023/01/18 02:29:06;;;;;;;;;;;-1.80;99.90;;;;;;5064613;28;19939;-73
2023/01/18 02:31:34;;;;;;;;;;;-1.90;99.90;;;;;;5057546;28;19925;-73
2023/01/18 02:34:03;;;;;;;;;;;-1.90;99.90;;;;;;5056644;28;19925;-72
2023/01/18 02:36:34;;;;;;;;;;;-1.90;99.90;;;;;;5066185;28;19931;-72
2023/01/18 02:39:03;;;;;;;;;;;-1.90;99.90;;;;;;5061951;28;20043;-72
2023/01/18 02:47:03;;;;;;;;;;;-1.90;99.90;;;;;;5055373;28;20465;-72
2023/01/18 02:49:31;;;;;;;;;;;-1.90;99.90;;;;;;5054704;28;19928;-72
2023/01/18 02:52:00;;;;;;;;;;;-1.90;99.90;;;;;;5064194;28;19990;-71
2023/01/18 02:54:28;;;;;;;;;;;-1.90;99.90;;;;;;5060020;28;19925;-72
2023/01/18 02:56:55;;;;;;;;;;;-2.00;99.90;;;;;;5064810;28;19968;-71
2023/01/18 02:59:26;;;;;;;;;;;-2.00;99.90;;;;;;5063385;28;19947;-72
2023/01/18 03:01:55;;;;;;;;;;;-2.00;99.90;;;;;;5058549;28;19946;-71
2023/01/18 03:04:23;;;;;;;;;;;-2.00;99.90;;;;;;5057650;28;19932;-72
2023/01/18 03:06:56;;;;;;;;;;;-2.00;99.90;;;;;;5055174;28;20426;-72
2023/01/18 03:09:25;;;;;;;;;;;-2.10;99.90;;;;;;5067519;28;19924;-74
2023/01/18 03:11:56;;;;;;;;;;;-2.10;99.90;;;;;;5065009;28;19924;-72
2023/01/18 03:14:31;;;;;;;;;;;-2.00;99.90;;;;;;5058287;28;19931;-73
2023/01/18 03:17:03;;;;;;;;;;;-2.00;99.90;;;;;;5059767;28;19924;-72
2023/01/18 03:25:08;;;;;;;;;;;-2.10;99.90;;;;;;5053350;28;20392;-71
2023/01/18 03:35:52;;;;;;;;;;;-2.20;99.90;;;;;;5061816;28;19951;-72
2023/01/18 03:38:18;;;;;;;;;;;-2.20;99.90;;;;;;5057594;28;19924;-72
2023/01/18 03:40:45;;;;;;;;;;;-2.20;99.90;;;;;;5057595;28;20375;-71
2023/01/18 03:43:15;;;;;;;;;;;-2.20;99.90;;;;;;5058192;28;19925;-72
2023/01/18 03:45:44;;;;;;;;;;;-2.20;99.90;;;;;;5054003;28;20236;-72
2023/01/18 03:48:11;;;;;;;;;;;-2.20;99.90;;;;;;5057463;28;19960;-70
2023/01/18 03:50:41;;;;;;;;;;;-2.20;99.90;;;;;;5063544;28;20000;-71
2023/01/18 03:53:11;;;;;;;;;;;-2.30;99.90;;;;;;5055035;28;19925;-72
2023/01/18 03:55:40;;;;;;;;;;;-2.20;99.90;;;;;;5056199;28;20300;-71
2023/01/18 03:58:08;;;;;;;;;;;-2.30;99.90;;;;;;5056705;28;19982;-72
2023/01/18 04:00:35;;;;;;;;;;;-2.20;99.90;;;;;;5060523;28;20382;-72
2023/01/18 04:03:03;;;;;;;;;;;-2.20;99.90;;;;;;5053439;28;19931;-70
2023/01/18 04:05:30;;;;;;;;;;;-2.20;99.90;;;;;;5065459;28;20381;-71
2023/01/18 04:07:57;;;;;;;;;;;-2.20;99.90;;;;;;5055962;28;19928;-71
2023/01/18 04:10:25;;;;;;;;;;;-2.10;99.90;;;;;;5052595;28;20299;-71
2023/01/18 04:12:52;;;;;;;;;;;-2.20;99.90;;;;;;5051557;28;19933;-72
2023/01/18 04:15:19;;;;;;;;;;;-2.10;99.90;;;;;;5051031;28;20398;-72
2023/01/18 04:17:48;;;;;;;;;;;-2.20;99.90;;;;;;5066318;28;20358;-72
2023/01/18 04:20:16;;;;;;;;;;;-2.10;99.90;;;;;;5059163;28;19970;-72
2023/01/18 04:22:43;;;;;;;;;;;-2.10;99.90;;;;;;5051933;28;19925;-74
2023/01/18 04:25:10;;;;;;;;;;;-2.10;99.90;;;;;;5051797;28;20020;-72
2023/01/18 04:27:36;;;;;;;;;;;-2.10;99.90;;;;;;5051734;28;19929;-72
2023/01/18 04:30:05;;;;;;;;;;;-2.10;99.90;;;;;;5053909;28;19925;-72
2023/01/18 04:32:31;;;;;;;;;;;-2.10;99.90;;;;;;5058306;28;20449;-73
2023/01/18 04:34:58;;;;;;;;;;;-2.10;99.90;;;;;;5058274;28;19936;-71
2023/01/18 04:37:29;;;;;;;;;;;-2.10;99.90;;;;;;5051877;28;19957;-72
2023/01/18 04:39:55;;;;;;;;;;;-2.10;99.90;;;;;;5057613;28;19947;-72
2023/01/18 04:42:24;;;;;;;;;;;-2.10;99.90;;;;;;5051215;28;19932;-72
2023/01/18 04:44:51;;;;;;;;;;;-2.10;99.90;;;;;;5068798;28;19928;-72
2023/01/18 04:47:17;;;;;;;;;;;-2.20;99.90;;;;;;5068988;28;20011;-72
2023/01/18 04:49:44;;;;;;;;;;;-2.10;99.90;;;;;;5058104;28;19924;-72
2023/01/18 04:52:11;;;;;;;;;;;-2.10;99.90;;;;;;5058259;28;19928;-73
2023/01/18 04:54:39;;;;;;;;;;;-2.10;99.90;;;;;;5057246;28;19924;-72
2023/01/18 04:57:05;;;;;;;;;;;-2.10;99.90;;;;;;5064636;28;19924;-72
2023/01/18 04:59:32;;;;;;;;;;;-2.10;99.90;;;;;;5056138;28;19924;-72
2023/01/18 05:01:58;;;;;;;;;;;-2.10;99.90;;;;;;5058336;28;20410;-72
2023/01/18 05:04:25;;;;;;;;;;;-2.10;99.90;;;;;;5050906;28;19925;-72
2023/01/18 05:06:52;;;;;;;;;;;-2.10;99.90;;;;;;5052105;28;19931;-72
2023/01/18 05:09:18;;;;;;;;;;;-2.00;99.90;;;;;;5060164;28;19931;-71
2023/01/18 05:11:46;;;;;;;;;;;-2.10;99.90;;;;;;5060125;28;19924;-71
2023/01/18 05:14:13;;;;;;;;;;;-2.00;99.90;;;;;;5052687;28;19971;-72
2023/01/18 05:16:40;;;;;;;;;;;-2.00;99.90;;;;;;5052335;28;20455;-72
2023/01/18 05:19:07;;;;;;;;;;;-2.00;99.90;;;;;;5050609;28;19955;-72
2023/01/18 05:21:33;;;;;;;;;;;-2.00;99.90;;;;;;5057684;28;19924;-73
2023/01/18 05:24:00;;;;;;;;;;;-1.90;99.90;;;;;;5051982;28;19931;-73
2023/01/18 05:26:26;;;;;;;;;;;-1.90;99.90;;;;;;5063983;28;19931;-73
2023/01/18 05:28:57;;;;;;;;;;;-1.90;99.90;;;;;;5058960;28;20031;-73
2023/01/18 05:31:24;;;;;;;;;;;-1.90;99.90;;;;;;5055831;28;19931;-72
2023/01/18 05:33:51;;;;;;;;;;;-1.90;99.90;;;;;;5057124;28;20024;-74
2023/01/18 05:36:18;;;;;;;;;;;-1.90;99.90;;;;;;5060907;28;20019;-73
2023/01/18 05:38:44;;;;;;;;;;;-1.90;99.90;;;;;;5063165;28;19931;-74
2023/01/18 05:41:11;;;;;;;;;;;-1.90;99.90;;;;;;5063597;28;20012;-73
2023/01/18 05:43:38;;;;;;;;;;;-1.90;99.90;;;;;;5064877;28;20015;-73
2023/01/18 05:46:06;;;;;;;;;;;-1.90;99.90;;;;;;5065577;28;20471;-73
2023/01/18 05:48:33;;;;;;;;;;;-1.90;99.90;;;;;;5069376;28;19932;-73
2023/01/18 05:50:59;;;;;;;;;;;-1.90;99.90;;;;;;5060128;28;20019;-72
2023/01/18 05:53:26;;;;;;;;;;;-1.90;99.90;;;;;;5065328;28;19979;-73
2023/01/18 05:55:54;;;;;;;;;;;-1.80;99.90;;;;;;5065147;28;20012;-72
2023/01/18 05:58:20;;;;;;;;;;;-1.80;99.90;;;;;;5063422;28;19928;-72
2023/01/18 06:00:47;;;;;;;;;;;-1.80;99.90;;;;;;5070319;28;20011;-73
2023/01/18 06:03:15;;;;;;;;;;;-1.80;99.90;;;;;;5067524;28;20015;-74
2023/01/18 06:05:42;;;;;;;;;;;-1.70;99.90;;;;;;5054132;28;19929;-73
2023/01/18 06:08:08;;;;;;;;;;;-1.80;99.90;;;;;;5068676;28;19925;-82
2023/01/18 06:10:35;;;;;;;;;;;-1.90;99.90;;;;;;5071025;28;19924;-74
2023/01/18 06:13:01;;;;;;;;;;;-1.80;99.90;;;;;;5061137;28;19931;-72
2023/01/18 06:15:28;;;;;;;;;;;-1.80;99.90;;;;;;5055743;28;20015;-72
2023/01/18 06:17:55;;;;;;;;;;;-1.80;99.90;;;;;;5070579;28;19935;-73
2023/01/18 06:20:23;;;;;;;;;;;-1.80;99.90;;;;;;5062000;28;20012;-73
2023/01/18 06:22:50;;;;;;;;;;;-1.80;99.90;;;;;;5054544;28;20398;-73
2023/01/18 06:25:17;;;;;;;;;;;-1.80;99.90;;;;;;5059723;28;19938;-73
2023/01/18 06:27:43;;;;;;;;;;;-1.80;99.90;;;;;;5070074;28;20018;-74
2023/01/18 06:30:10;;;;;;;;;;;-1.80;99.90;;;;;;5063458;28;19924;-73
2023/01/18 06:32:37;;;;;;;;;;;-1.80;99.90;;;;;;5064380;28;19928;-72
2023/01/18 06:35:04;;;;;;;;;;;-1.80;99.90;;;;;;5069336;28;19931;-73
2023/01/18 06:37:32;;;;;;;;;;;-1.80;99.90;;;;;;5072119;28;19946;-72
2023/01/18 06:39:59;;;;;;;;;;;-1.80;99.90;;;;;;5066205;28;19924;-74
2023/01/18 06:42:25;;;;;;;;;;;-1.80;99.90;;;;;;5055630;28;19931;-73
2023/01/18 06:44:52;;;;;;;;;;;-1.80;99.90;;;;;;5066834;28;19932;-72
2023/01/18 06:47:19;;;;;;;;;;;-1.80;99.90;;;;;;5071154;28;19947;-72
2023/01/18 06:49:46;;;;;;;;;;;-1.70;99.90;;;;;;5057716;28;20306;-73
2023/01/18 06:52:13;;;;;;;;;;;-1.70;99.90;;;;;;5068748;28;20283;-73
2023/01/18 06:54:41;;;;;;;;;;;-1.60;99.90;;;;;;5070966;28;19970;-73
2023/01/18 06:57:08;;;;;;;;;;;-1.50;99.90;;;;;;5062916;28;19956;-73
2023/01/18 06:59:34;;;;;;;;;;;-1.50;99.90;;;;;;5066353;28;19946;-74
2023/01/18 07:02:01;;;;;;;;;;;-1.40;99.90;;;;;;5071578;28;20353;-72
2023/01/18 07:04:28;;;;;;;;;;;-1.50;99.90;;;;;;5067877;28;20358;-72
2023/01/18 07:06:54;;;;;;;;;;;-1.50;99.90;;;;;;5063301;28;19928;-72
2023/01/18 07:09:21;;;;;;;;;;;-1.40;99.90;;;;;;5057529;28;20055;-73
2023/01/18 07:11:49;;;;;;;;;;;-1.40;99.90;;;;;;5069643;28;19925;-74
2023/01/18 07:14:16;;;;;;;;;;;-1.40;99.90;;;;;;5051146;28;19935;-71
2023/01/18 07:16:42;;;;;;;;;;;-1.40;99.90;;;;;;5059638;28;20015;-72
2023/01/18 07:19:09;;;;;;;;;;;-1.30;99.90;;;;;;5060442;28;20011;-72
2023/01/18 07:21:36;;;;;;;;;;;-1.30;99.90;;;;;;5059587;28;19924;-71
2023/01/18 07:24:02;;;;;;;;;;;-1.30;99.90;;;;;;5064349;28;20031;-71
2023/01/18 07:26:29;;;;;;;;;;;-1.30;99.90;;;;;;5066607;28;20396;-72
2023/01/18 07:28:57;;;;;;;;;;;-1.20;99.90;;;;;;5061139;28;19930;-71
2023/01/18 07:31:24;;;;;;;;;;;-1.30;99.90;;;;;;5059483;28;20000;-71
2023/01/18 07:33:51;;;;;;;;;;;-1.30;99.90;;;;;;5058746;28;19928;-71
2023/01/18 07:36:17;;;;;;;;;;;-1.30;99.90;;;;;;5058696;28;20199;-71
2023/01/18 07:38:45;;;;;;;;;;;-1.40;99.90;;;;;;5063887;28;19924;-71
2023/01/18 07:41:13;;;;;;;;;;;-1.40;99.90;;;;;;5060702;28;20023;-71
2023/01/18 07:43:40;;;;;;;;;;;-1.40;99.90;;;;;;5060366;28;19975;-73
2023/01/18 07:46:10;;;;;;;;;;;-1.40;99.90;;;;;;5059253;28;19925;-72
2023/01/18 07:48:36;;;;;;;;;;;-1.40;99.90;;;;;;5068774;28;19924;-72
2023/01/18 07:51:04;;;;;;;;;;;-1.40;99.90;;;;;;5065552;28;19937;-72
2023/01/18 07:53:31;;;;;;;;;;;-1.40;99.90;;;;;;5068753;28;19963;-71
2023/01/18 07:55:59;;;;;;;;;;;-1.40;99.90;;;;;;5059804;28;20412;-72
2023/01/18 07:58:25;;;;;;;;;;;-1.40;99.90;;;;;;5067794;28;19928;-71
2023/01/18 08:00:52;;;;;;;;;;;-1.40;99.90;;;;;;5065906;28;19930;-71
2023/01/18 08:03:20;;;;;;;;;;;-1.30;99.90;;;;;;5064331;28;20372;-71
2023/01/18 08:05:47;;;;;;;;;;;-1.30;99.90;;;;;;5057743;28;20037;-72
2023/01/18 08:08:14;;;;;;;;;;;-1.20;99.90;;;;;;5060917;28;19928;-72
2023/01/18 08:10:41;;;;;;;;;;;-1.20;99.90;;;;;;5068356;28;20019;-72
2023/01/18 08:13:09;;;;;;;;;;;-1.10;99.90;;;;;;5060604;28;20019;-72
2023/01/18 08:15:36;;;;;;;;;;;-1.00;99.90;;;;;;5054962;28;20018;-72
2023/01/18 08:18:03;;;;;;;;;;;-1.00;99.90;;;;;;5066202;28;19924;-72
2023/01/18 08:20:32;;;;;;;;;;;-1.00;99.90;;;;;;5065214;28;19933;-72
2023/01/18 08:23:00;;;;;;;;;;;-0.90;99.90;;;;;;5068953;28;19932;-73
2023/01/18 08:25:28;;;;;;;;;;;-0.90;99.90;;;;;;5057525;28;20358;-73
2023/01/18 08:27:56;;;;;;;;;;;-0.80;99.90;;;;;;5064197;28;20023;-74
2023/01/18 08:30:26;;;;;;;;;;;-0.80;99.90;;;;;;5054256;28;20387;-74
2023/01/18 08:32:54;;;;;;;;;;;-0.80;99.90;;;;;;5067272;28;19925;-74
2023/01/18 08:35:21;;;;;;;;;;;-0.80;99.90;;;;;;5060828;28;19932;-74
2023/01/18 08:37:49;;;;;;;;;;;-0.80;99.90;;;;;;5065394;28;19931;-72
2023/01/18 08:40:16;;;;;;;;;;;-0.80;99.90;;;;;;5060707;28;19930;-71
2023/01/18 08:42:42;;;;;;;;;;;-0.70;99.90;;;;;;5067238;28;19924;-72
2023/01/18 08:45:10;;;;;;;;;;;0.30;99.90;;;;;;5063867;28;19935;-72
2023/01/18 08:47:36;;;;;;;;;;;1.30;99.90;;;;;;5057344;28;20115;-73
2023/01/18 08:50:03;;;;;;;;;;;1.50;99.90;;;;;;5064338;28;19931;-73
2023/01/18 08:52:30;;;;;;;;;;;2.10;99.90;;;;;;5063391;28;20016;-73
2023/01/18 08:54:58;;;;;;;;;;;2.50;99.90;;;;;;5062418;28;19999;-73
2023/01/18 08:57:24;;;;;;;;;;;2.90;99.90;;;;;;5063441;28;20393;-73
2023/01/18 08:59:51;;;;;;;;;;;3.40;99.90;;;;;;5063637;28;19986;-73
2023/01/18 09:02:18;;;;;;;;;;;3.50;99.90;;;;;;5058191;28;20295;-72
2023/01/18 09:04:47;;;;;;;;;;;3.50;99.90;;;;;;5064850;28;20372;-73
2023/01/18 09:07:14;;;;;;;;;;;3.00;99.90;;;;;;5070717;28;20394;-72
2023/01/18 09:09:40;;;;;;;;;;;2.00;99.90;;;;;;5062364;28;19925;-72
2023/01/18 09:12:08;;;;;;;;;;;1.50;99.90;;;;;;5070584;28;20379;-73
2023/01/18 09:14:35;;;;;;;;;;;1.10;99.90;;;;;;5060901;28;20397;-71
2023/01/18 09:17:02;;;;;;;;;;;0.70;99.90;;;;;;5059262;28;19934;-72
2023/01/18 09:19:28;;;;;;;;;;;0.50;99.90;;;;;;5069051;28;20011;-73
2023/01/18 09:21:55;;;;;;;;;;;0.60;99.90;;;;;;5065765;28;20362;-72
2023/01/18 09:24:22;;;;;;;;;;;1.10;99.90;;;;;;5061806;28;20306;-71
2023/01/18 09:26:50;;;;;;;;;;;2.30;99.90;;;;;;5061874;28;19960;-72
2023/01/18 09:29:18;;;;;;;;;;;2.90;99.90;;;;;;5070441;28;20362;-74
2023/01/18 09:31:45;;;;;;;;;;;3.20;99.90;;;;;;5072894;28;19924;-72
2023/01/18 09:34:12;;;;;;;;;;;4.20;99.90;;;;;;5076496;28;20015;-73
2023/01/18 09:36:39;;;;;;;;;;;4.10;99.90;;;;;;5070614;28;19955;-72
2023/01/18 09:39:06;;;;;;;;;;;3.10;99.90;;;;;;5066647;28;19939;-72
2023/01/18 09:41:35;;;;;;;;;;;2.20;99.90;;;;;;5067544;28;20344;-74
2023/01/18 09:44:05;;;;;;;;;;;1.60;99.90;;;;;;5064824;28;19924;-73
2023/01/18 09:46:35;;;;;;;;;;;1.20;99.90;;;;;;5057766;28;19929;-71
2023/01/18 09:49:03;;;;;;;;;;;1.00;99.90;;;;;;5068669;28;19939;-75
2023/01/18 09:51:31;;;;;;;;;;;1.00;99.90;;;;;;5068439;28;19929;-73
2023/01/18 09:54:09;;;;;;;;;;;0.90;99.90;;;;;;5073678;28;19933;-74
2023/01/18 09:56:38;;;;;;;;;;;0.80;99.90;;;;;;5057723;28;20284;-74
2023/01/18 09:59:11;;;;;;;;;;;0.90;99.90;;;;;;5057558;28;19931;-73
2023/01/18 10:01:39;;;;;;;;;;;0.90;99.90;;;;;;5069677;28;20011;-74
2023/01/18 10:04:12;;;;;;;;;;;1.00;99.90;;;;;;5060980;28;19929;-74
2023/01/18 10:06:43;;;;;;;;;;;1.00;99.90;;;;;;5064891;28;19955;-73
2023/01/18 10:09:14;;;;;;;;;;;1.00;99.90;;;;;;5058387;28;20361;-74
2023/01/18 10:11:46;;;;;;;;;;;1.00;99.90;;;;;;5054750;28;20353;-74
2023/01/18 10:14:17;;;;;;;;;;;1.10;99.90;;;;;;5068496;28;19928;-73
2023/01/18 10:16:46;;;;;;;;;;;1.20;99.90;;;;;;5070541;28;19924;-74
2023/01/18 10:19:15;;;;;;;;;;;1.20;99.90;;;;;;5072596;28;19944;-73
2023/01/18 10:21:47;;;;;;;;;;;1.40;99.90;;;;;;5065432;28;20451;-74
2023/01/18 10:24:33;;;;;;;;;;;1.40;99.90;;;;;;5067345;28;20011;-74
2023/01/18 10:27:09;;;;;;;;;;;1.40;99.90;;;;;;5066491;28;19936;-73
2023/01/18 10:29:43;;;;;;;;;;;1.50;99.90;;;;;;5063421;28;20384;-74
2023/01/18 10:32:14;;;;;;;;;;;1.60;99.90;;;;;;5065941;28;19925;-74
2023/01/18 10:34:43;;;;;;;;;;;1.60;99.90;;;;;;5070523;28;19928;-74
2023/01/18 10:37:13;;;;;;;;;;;1.70;99.90;;;;;;5079830;28;19956;-73
2023/01/18 10:39:41;;;;;;;;;;;1.70;99.90;;;;;;5072336;28;20011;-73
2023/01/18 10:42:13;;;;;;;;;;;1.80;99.90;;;;;;5067692;28;20429;-74
2023/01/18 10:44:40;;;;;;;;;;;1.90;99.90;;;;;;5070218;28;20449;-71
2023/01/18 10:47:07;;;;;;;;;;;1.90;99.90;;;;;;5068758;28;19924;-74
2023/01/18 10:49:36;;;;;;;;;;;2.00;99.90;;;;;;5063677;28;19932;-73
2023/01/18 10:52:19;;;;;;;;;;;1.90;99.90;;;;;;5054023;28;19935;-72
2023/01/18 10:54:49;;;;;;;;;;;2.00;99.90;;;;;;5064933;28;20010;-74
2023/01/18 10:57:20;;;;;;;;;;;2.00;99.90;;;;;;5063100;28;19929;-71
2023/01/18 10:59:47;;;;;;;;;;;2.10;99.90;;;;;;5054779;28;19954;-72
2023/01/18 11:02:19;;;;;;;;;;;2.20;99.90;;;;;;5059486;28;19924;-72
2023/01/18 11:04:53;;;;;;;;;;;2.30;99.90;;;;;;5069885;28;20376;-70
2023/01/18 11:07:23;;;;;;;;;;;2.40;99.90;;;;;;5067588;28;20409;-71
2023/01/18 11:09:53;;;;;;;;;;;2.40;99.90;;;;;;5062628;28;19925;-71
2023/01/18 11:12:40;;;;;;;;;;;2.50;99.90;;;;;;5061023;28;20401;-71
2023/01/18 11:15:23;;;;;;;;;;;2.60;99.90;;;;;;5069085;28;19924;-70
2023/01/18 11:18:00;;;;;;;;;;;2.70;99.90;;;;;;5056826;28;19947;-72
2023/01/18 11:20:33;;;;;;;;;;;2.70;99.90;;;;;;5065940;28;19985;-70
2023/01/18 11:23:02;;;;;;;;;;;2.90;99.90;;;;;;5064920;28;19924;-73
2023/01/18 11:25:39;;;;;;;;;;;2.90;99.90;;;;;;5058544;28;20003;-73
2023/01/18 11:28:07;;;;;;;;;;;2.90;99.90;;;;;;5059743;28;19968;-72
2023/01/18 11:30:34;;;;;;;;;;;2.90;99.90;;;;;;5065611;28;19929;-71
2023/01/18 11:33:01;;;;;;;;;;;3.00;99.90;;;;;;5071999;28;19996;-71
2023/01/18 11:35:32;;;;;;;;;;;3.00;99.90;;;;;;5070605;28;19933;-73
2023/01/18 11:38:01;;;;;;;;;;;3.10;99.90;;;;;;5062115;28;21861;-72
2023/01/18 11:40:32;;;;;;;;;;;3.20;99.90;;;;;;5069390;28;19931;-72
2023/01/18 11:43:02;;;;;;;;;;;3.20;99.90;;;;;;5069055;28;19925;-74
2023/01/18 11:45:30;;;;;;;;;;;3.20;99.90;;;;;;5067137;28;19936;-72
2023/01/18 11:48:00;;;;;;;;;;;3.20;99.90;;;;;;5060779;28;19967;-72
2023/01/18 11:50:31;;;;;;;;;;;3.30;99.90;;;;;;5063545;28;19929;-72
2023/01/18 11:53:03;;;;;;;;;;;3.40;99.90;;;;;;5060709;28;20471;-74
2023/01/18 11:55:33;;;;;;;;;;;3.40;99.90;;;;;;5062288;28;19958;-72
2023/01/18 11:58:04;;;;;;;;;;;3.50;99.90;;;;;;5053988;28;19986;-71
2023/01/18 12:00:36;;;;;;;;;;;3.50;99.90;;;;;;5057438;28;20131;-71
2023/01/18 12:03:29;;;;;;;;;;;3.50;99.90;;;;;;5061843;28;19924;-71
2023/01/18 12:06:02;;;;;;;;;;;3.50;99.90;;;;;;5059237;28;19924;-72
2023/01/18 12:08:38;;;;;;;;;;;3.60;99.90;;;;;;5066707;28;19933;-72
2023/01/18 12:11:19;;;;;;;;;;;3.60;99.90;;;;;;5064644;28;19924;-72
2023/01/18 12:13:52;;;;;;;;;;;3.60;99.90;;;;;;5052416;28;20376;-72
2023/01/18 12:16:21;;;;;;;;;;;3.70;99.90;;;;;;5052050;28;19929;-71
2023/01/18 12:19:03;;;;;;;;;;;3.70;99.90;;;;;;5051013;28;19925;-72
2023/01/18 12:21:35;;;;;;;;;;;3.70;99.90;;;;;;5064852;28;20340;-72
2023/01/18 12:24:10;;;;;;;;;;;3.80;99.90;;;;;;5066925;28;19995;-73
2023/01/18 12:26:49;;;;;;;;;;;3.70;99.90;;;;;;5057600;28;19929;-72
2023/01/18 12:29:24;;;;;;;;;;;3.70;99.90;;;;;;5065208;28;19924;-72
2023/01/18 12:31:57;;;;;;;;;;;3.80;99.90;;;;;;5055179;28;19925;-72
2023/01/18 12:34:26;;;;;;;;;;;3.80;99.90;;;;;;5061344;28;19929;-73
2023/01/18 12:37:00;;;;;;;;;;;3.80;99.90;;;;;;5061552;28;19938;-74
2023/01/18 12:39:36;;;;;;;;;;;3.80;99.90;;;;;;5067239;28;19931;-73
2023/01/18 12:42:05;;;;;;;;;;;3.80;99.90;;;;;;5061468;28;20288;-72
2023/01/18 12:44:37;;;;;;;;;;;3.90;99.90;;;;;;5072827;28;20445;-72
2023/01/18 12:47:14;;;;;;;;;;;3.90;99.90;;;;;;5075408;28;19924;-71
2023/01/18 12:49:44;;;;;;;;;;;3.90;99.90;;;;;;5072628;28;19932;-73
2023/01/18 12:52:12;;;;;;;;;;;4.00;99.90;;;;;;5070140;28;20398;-72
2023/01/18 12:54:40;;;;;;;;;;;3.90;99.90;;;;;;5057603;28;20391;-71
2023/01/18 12:57:07;;;;;;;;;;;4.00;99.90;;;;;;5069090;28;19924;-71
2023/01/18 12:59:39;;;;;;;;;;;4.10;99.90;;;;;;5062927;28;20379;-71
2023/01/18 13:02:14;;;;;;;;;;;4.10;99.90;;;;;;5059128;28;20405;-72
2023/01/18 13:04:43;;;;;;;;;;;4.10;99.90;;;;;;5065324;28;19931;-71
2023/01/18 13:07:12;;;;;;;;;;;4.10;99.90;;;;;;5061610;28;19971;-72
2023/01/18 13:09:42;;;;;;;;;;;4.20;99.90;;;;;;5059366;28;19939;-72
2023/01/18 13:12:09;;;;;;;;;;;4.20;99.90;;;;;;5060896;28;20363;-71
2023/01/18 13:14:41;;;;;;;;;;;4.20;99.90;;;;;;5064498;28;19925;-73
2023/01/18 13:17:11;;;;;;;;;;;4.30;99.90;;;;;;5063659;28;20392;-71
2023/01/18 13:19:40;;;;;;;;;;;4.30;99.90;;;;;;5058640;28;20439;-71
2023/01/18 13:22:09;;;;;;;;;;;4.20;99.90;;;;;;5055497;28;19929;-71
2023/01/18 13:24:42;;;;;;;;;;;4.20;99.90;;;;;;5061483;28;20391;-72
2023/01/18 13:27:10;;;;;;;;;;;4.20;99.90;;;;;;5065109;28;20328;-72
2023/01/18 13:29:39;;;;;;;;;;;4.20;99.90;;;;;;5064489;28;20281;-71
2023/01/18 13:32:20;;;;;;;;;;;4.40;99.90;;;;;;5060794;28;20016;-71
2023/01/18 13:34:55;;;;;;;;;;;4.60;99.90;;;;;;5065663;28;20062;-72
2023/01/18 13:37:38;;;;;;;;;;;4.50;99.90;;;;;;5066240;28;19924;-69
2023/01/18 13:40:07;;;;;;;;;;;4.50;99.90;;;;;;5059577;28;19946;-70
2023/01/18 13:42:37;;;;;;;;;;;4.50;99.90;;;;;;5063154;28;20330;-70
2023/01/18 13:45:17;;;;;;;;;;;4.40;99.90;;;;;;5063819;28;19960;-70
2023/01/18 13:47:47;;;;;;;;;;;4.40;99.90;;;;;;5064536;28;20027;-72
2023/01/18 13:50:29;;;;;;;;;;;4.40;99.90;;;;;;5060756;28;19925;-71
2023/01/18 13:53:16;;;;;;;;;;;4.40;99.90;;;;;;5053170;28;19925;-72
2023/01/18 13:55:49;;;;;;;;;;;4.30;99.90;;;;;;5058450;28;20445;-71
2023/01/18 13:58:17;;;;;;;;;;;4.30;99.90;;;;;;5070146;28;19963;-73
2023/01/18 14:00:48;;;;;;;;;;;4.30;99.90;;;;;;5069707;28;20395;-71
2023/01/18 14:03:16;;;;;;;;;;;4.30;99.90;;;;;;5064562;28;19934;-70
2023/01/18 14:05:44;;;;;;;;;;;4.30;99.90;;;;;;5063327;28;19969;-71
2023/01/18 14:08:18;;;;;;;;;;;4.30;99.90;;;;;;5060233;28;20027;-70
2023/01/18 14:10:47;;;;;;;;;;;4.30;99.90;;;;;;5059671;28;20395;-71
2023/01/18 14:13:16;;;;;;;;;;;4.30;99.90;;;;;;5070109;28;19929;-71
2023/01/18 14:15:51;;;;;;;;;;;4.30;99.90;;;;;;5059464;28;19932;-71
2023/01/18 14:18:21;;;;;;;;;;;4.30;99.90;;;;;;5066063;28;20015;-71
2023/01/18 14:21:06;;;;;;;;;;;4.20;99.90;;;;;;5066174;28;19931;-71
2023/01/18 14:23:46;;;;;;;;;;;4.20;99.90;;;;;;5054866;28;19932;-69
2023/01/18 14:26:14;;;;;;;;;;;4.20;99.90;;;;;;5056294;28;19986;-70
2023/01/18 14:28:45;;;;;;;;;;;4.20;99.90;;;;;;5067600;28;19986;-71
2023/01/18 14:31:15;;;;;;;;;;;4.20;99.90;;;;;;5061468;28;20379;-72
2023/01/18 14:33:42;;;;;;;;;;;4.20;99.90;;;;;;5058767;28;20405;-69
2023/01/18 14:36:18;;;;;;;;;;;4.20;99.90;;;;;;5061429;28;19928;-70
2023/01/18 14:38:45;;;;;;;;;;;4.20;99.90;;;;;;5066330;28;19925;-69
2023/01/18 14:41:15;;;;;;;;;;;4.20;99.90;;;;;;5062195;28;20008;-72
2023/01/18 14:43:43;;;;;;;;;;;4.20;99.90;;;;;;5054310;28;20307;-73
2023/01/18 14:46:11;;;;;;;;;;;4.10;99.90;;;;;;5056620;28;20022;-72
2023/01/18 14:48:45;;;;;;;;;;;4.10;99.90;;;;;;5069263;28;20411;-73
2023/01/18 14:51:16;;;;;;;;;;;4.10;99.90;;;;;;5059154;28;20346;-73
2023/01/18 14:53:44;;;;;;;;;;;4.10;99.90;;;;;;5063146;28;19924;-69
2023/01/18 14:56:15;;;;;;;;;;;4.10;99.90;;;;;;5067757;28;19925;-74
2023/01/18 14:58:43;;;;;;;;;;;4.00;99.90;;;;;;5066746;28;20023;-72
2023/01/18 15:01:22;;;;;;;;;;;4.00;99.90;;;;;;5054239;28;19925;-72
2023/01/18 15:03:54;;;;;;;;;;;4.00;99.90;;;;;;5064645;28;19967;-70
2023/01/18 15:06:29;;;;;;;;;;;4.00;99.90;;;;;;5067080;28;19931;-73
2023/01/18 15:08:55;;;;;;;;;;;4.00;99.90;;;;;;5049957;28;19950;-72
2023/01/18 15:11:28;;;;;;;;;;;4.00;99.90;;;;;;5055681;28;19996;-72
2023/01/18 15:13:56;;;;;;;;;;;4.00;99.90;;;;;;5067149;28;19939;-72